Vancouver, WA (98660)

10:30 AM PST on November 28, 2014 (GMT -0800)
Fruit Valley | Change Station
CLOSE
Current Station
Personal Weather Station
Location: Vancouver, WA
Elevation: 37 ft
Nearby Weather Stations
Active Advisory: Special Statement Active Notice: Record Report

Elev 37 ft 45.65 °N, 122.69 °W | Updated 1 second ago

Light Rain
Light Rain
53.5 °F
Feels Like 53.5 °F
N
3.0
Wind Variable Wind from SSW
Gusts 7.0 mph

Today
High -- | Low -- °F
--% Chance of Precip.
Yesterday
High -- | Low -- °F
Precip. -- in
7:27 AM 4:29 PM
Waxing Crescent, 42% visible
Pressure 29.60 in
Visibility 6.0 miles
Clouds Few 1900 ft
Mostly Cloudy 4700 ft
Overcast 8000 ft
Dew Point 53 °F
Humidity 97%
Rainfall 0.09 in
Snow Depth Not available.
UV 0 out of 12
Pollen .30 out of 12
Air Quality Not available.
Flu Activity Not available.
SPECI KVUO 281824Z AUTO 18012G26KT 6SM -RA FEW019 BKN047 OVC080 12/09 A2960 RMK AO2 PK WND 18026/1821 RAB1759 P0003 T01220094

More Conditions Fewer Conditions

Pressure 29.60 in
Visibility 6.0 miles
Clouds Few 1900 ft
Mostly Cloudy 4700 ft
Overcast 8000 ft
Dew Point 53 °F
Humidity 97%
Rainfall 0.09 in
Snow Depth Not available.
UV 0 out of 12
Pollen .30 out of 12
Air Quality Not available.
Flu Activity Not available.
SPECI KVUO 281824Z AUTO 18012G26KT 6SM -RA FEW019 BKN047 OVC080 12/09 A2960 RMK AO2 PK WND 18026/1821 RAB1759 P0003 T01220094

More Conditions Fewer Conditions

10-Day Weather Forecast

Almanac

Astronomy

Nov. 28, 2014 Rise Set
Actual Time
Civil Twilight
Nautical Twilight
Astronomical Twilight
Moon
Length of Visible Light
Length of Day
Tomorrow will be .
, % of the Moon is Illuminated

Today's Extremes

State Highs State Lows

Community

WunderPhotos

Upload Photos

1,774,254 photos uploaded!

WunderBlogs® & News

Nearby

Air Quality

  Air Quality AQ Index Pollutant
Not available.

Snow Depth

Station Depth Elevation

Earthquake Activity

City Distance Mag. Time & Date
Minimum magnitude displayed is 2.5.

Coastal Water Temperatures

Place Temperature

Nearby Weather Stations